This is the latest recevied weather packets stored in our database for station/object SR8NGO-1. If no packets are shown the sender has not sent any weather packets the latest 1 day(s).
| Time | Temp. | Humidity | Pressure | Rain* | Wind** | Luminosity | Snow |
|---|---|---|---|---|---|---|---|
| 1836274710 | 12.78° C | 92% | 1014.4 hPa | 124.97 mm | 3.58 m/s, 179° | - | - |
| 1836274470 | 12.78° C | 92% | 1014.4 hPa | 124.97 mm | 3.58 m/s, 177° | - | - |
| 1836274440 | 12.78° C | 92% | 1014.4 hPa | 124.97 mm | 3.13 m/s, 189° | - | - |
| 1836274230 | 12.78° C | 92% | 1014.4 hPa | 124.97 mm | 3.58 m/s, 179° | - | - |
| 1836274200 | 12.78° C | 92% | 1014.4 hPa | 124.97 mm | 4.02 m/s, 183° | - | - |
| 1836273990 | 12.78° C | 92% | 1014.4 hPa | 124.97 mm | 3.58 m/s, 179° | - | - |
| 1778035248 | 12.78° C | 59% | 997.5 hPa | 123.95 mm | 1.79 m/s, 161° | - | - |
| 1778035008 | 12.78° C | 59% | 997.5 hPa | 123.95 mm | 3.58 m/s, 162° | - | - |
| 1778034768 | 13.89° C | 59% | 997.4 hPa | 123.95 mm | 2.68 m/s, 128° | - | - |
| 1778034528 | 13.89° C | 59% | 997.5 hPa | 123.95 mm | 4.02 m/s, 166° | - | - |
| 1778034288 | 13.89° C | 59% | 997.4 hPa | 123.95 mm | 2.68 m/s, 145° | - | - |
| 1778034048 | 13.89° C | 59% | 997.4 hPa | 124.97 mm | 3.13 m/s, 173° | - | - |
| 1778033808 | 13.89° C | 59% | 997.5 hPa | 123.95 mm | 3.13 m/s, 162° | - | - |
| 1778033568 | 12.78° C | 59% | 997.5 hPa | 124.97 mm | 4.47 m/s, 194° | - | - |
| 1778033328 | 12.22° C | 59% | 997.5 hPa | 124.97 mm | 2.24 m/s, 179° | - | - |
| 1778033088 | 12.78° C | 59% | 997.5 hPa | 124.97 mm | 2.68 m/s, 173° | - | - |
| 1778032848 | 12.78° C | 58% | 997.5 hPa | 124.97 mm | 2.24 m/s, 190° | - | - |
| 1778032608 | 12.78° C | 58% | 997.5 hPa | 124.97 mm | 3.13 m/s, 194° | - | - |
| 1778032373 | 12.78° C | 58% | 997.5 hPa | 124.97 mm | 3.58 m/s, 196° | - | - |
| 1778032128 | 12.78° C | 58% | 997.6 hPa | 124.97 mm | 3.13 m/s, 190° | - | - |
| 1778031888 | 12.78° C | 58% | 997.6 hPa | 124.97 mm | 3.13 m/s, 194° | - | - |
| 1778031648 | 12.78° C | 58% | 997.5 hPa | 124.97 mm | 2.68 m/s, 184° | - | - |
| 1778031408 | 12.78° C | 58% | 997.6 hPa | 124.97 mm | 3.13 m/s, 184° | - | - |
| 1778031168 | 13.89° C | 58% | 997.6 hPa | 124.97 mm | 4.47 m/s, 177° | - | - |
| 1778030928 | 13.89° C | 58% | 997.6 hPa | 124.97 mm | 4.02 m/s, 190° | - | - |
* Rain latest hour (hover to see other rain measurements)
** Current wind speed in m/s (hover to see current wind gust speed)